createdAt,value
2018-11-04T00:00:57.570Z,7.70
2018-11-04T00:03:26.313Z,7.27
2018-11-04T00:05:54.761Z,7.03
2018-11-04T00:08:23.201Z,8.30
2018-11-04T00:10:51.637Z,7.30
2018-11-04T00:13:20.425Z,7.10
2018-11-04T00:15:48.776Z,7.00
2018-11-04T00:18:17.184Z,7.20
2018-11-04T00:20:45.629Z,7.80
2018-11-04T00:23:14.043Z,7.57
2018-11-04T00:25:42.491Z,7.33
2018-11-04T00:28:10.913Z,7.23
2018-11-04T00:30:39.351Z,7.90
2018-11-04T00:33:07.780Z,7.77
2018-11-04T00:35:36.246Z,8.20
2018-11-04T00:38:04.687Z,8.30
2018-11-04T00:40:33.104Z,7.47
2018-11-04T00:43:01.537Z,8.27
2018-11-04T00:45:30.093Z,8.10
2018-11-04T00:47:58.435Z,6.60
2018-11-04T00:50:26.860Z,7.17
2018-11-04T00:52:55.312Z,8.73
2018-11-04T00:55:23.731Z,8.30
2018-11-04T00:57:52.173Z,8.83
2018-11-04T01:00:20.676Z,7.90
2018-11-04T01:02:50.272Z,8.07
2018-11-04T01:05:19.041Z,7.93
2018-11-04T01:07:47.477Z,6.97
2018-11-04T01:10:15.937Z,7.13
2018-11-04T01:12:44.874Z,7.57
2018-11-04T01:15:14.169Z,7.57
2018-11-04T01:17:43.337Z,7.90
2018-11-04T01:20:13.724Z,7.60
2018-11-04T01:22:42.354Z,7.90
2018-11-04T01:25:10.830Z,8.23
2018-11-04T01:27:39.364Z,8.07
2018-11-04T01:30:10.823Z,8.27
2018-11-04T01:32:39.351Z,7.83
2018-11-04T01:35:08.108Z,8.03
2018-11-04T01:37:36.572Z,8.50
2018-11-04T01:40:06.085Z,8.43
2018-11-04T01:42:34.539Z,8.80
2018-11-04T01:45:02.975Z,8.30
2018-11-04T01:47:31.405Z,8.30
2018-11-04T01:49:59.821Z,8.50
2018-11-04T01:52:28.264Z,8.57
2018-11-04T01:54:56.692Z,8.20
2018-11-04T01:57:25.141Z,8.27
2018-11-04T01:59:53.569Z,7.97
2018-11-04T02:02:23.084Z,7.83
2018-11-04T02:04:51.488Z,8.57
2018-11-04T02:07:19.945Z,8.23
2018-11-04T02:09:48.349Z,7.50
2018-11-04T02:12:16.779Z,7.67
2018-11-04T02:14:45.215Z,8.27
2018-11-04T02:17:13.646Z,8.47
2018-11-04T02:19:42.090Z,7.90
2018-11-04T02:22:10.505Z,8.20
2018-11-04T02:24:38.956Z,7.23
2018-11-04T02:27:07.383Z,7.70
2018-11-04T02:29:35.825Z,7.93
2018-11-04T02:32:04.255Z,8.20
2018-11-04T02:34:32.691Z,7.77
2018-11-04T02:37:01.114Z,7.47
2018-11-04T02:39:29.568Z,8.00
2018-11-04T02:41:57.978Z,8.53
2018-11-04T02:44:26.402Z,8.50
2018-11-04T02:46:54.850Z,8.13
2018-11-04T02:49:23.275Z,6.83
2018-11-04T02:51:51.688Z,8.20
2018-11-04T02:54:20.158Z,7.20
2018-11-04T02:56:48.594Z,7.23
2018-11-04T02:59:17.064Z,7.57
2018-11-04T03:01:45.520Z,7.60
2018-11-04T03:04:14.302Z,7.60
2018-11-04T03:06:42.705Z,7.37
2018-11-04T03:09:11.688Z,8.10
2018-11-04T03:11:40.127Z,8.07
2018-11-04T03:14:08.610Z,7.73
2018-11-04T03:16:37.013Z,8.00
2018-11-04T03:19:05.602Z,7.70
2018-11-04T03:21:34.038Z,8.20
2018-11-04T03:24:02.481Z,7.97
2018-11-04T03:26:30.951Z,8.43
2018-11-04T03:29:00.213Z,8.50
2018-11-04T03:31:28.627Z,8.13
2018-11-04T03:33:57.090Z,8.20
2018-11-04T03:36:25.509Z,8.10
2018-11-04T03:38:53.933Z,8.93
2018-11-04T03:41:22.368Z,8.43
2018-11-04T03:43:50.825Z,9.97
2018-11-04T03:46:19.240Z,9.30
2018-11-04T03:48:47.705Z,8.97
2018-11-04T03:51:16.130Z,8.97
2018-11-04T03:53:44.567Z,9.10
2018-11-04T03:56:12.981Z,10.47
2018-11-04T03:58:41.414Z,9.17
2018-11-04T04:01:09.852Z,9.67
2018-11-04T04:03:38.300Z,10.40
2018-11-04T04:06:06.775Z,10.10
2018-11-04T04:08:35.229Z,9.37
2018-11-04T04:11:03.653Z,8.73
2018-11-04T04:13:32.161Z,9.43
2018-11-04T04:16:00.556Z,9.03
2018-11-04T04:18:28.994Z,9.97
2018-11-04T04:21:03.304Z,9.20
2018-11-04T04:23:31.774Z,9.43
2018-11-04T04:26:00.178Z,10.60
2018-11-04T04:28:28.625Z,12.27
2018-11-04T04:30:57.073Z,12.10
2018-11-04T04:33:25.622Z,12.20
2018-11-04T04:35:54.046Z,11.63
2018-11-04T04:38:22.568Z,12.30
2018-11-04T04:40:50.987Z,12.30
2018-11-04T04:43:19.481Z,9.50
2018-11-04T04:45:47.899Z,10.40
2018-11-04T04:48:16.364Z,9.37
2018-11-04T04:50:44.780Z,8.97
2018-11-04T04:53:13.192Z,10.97
2018-11-04T04:55:41.676Z,11.77
2018-11-04T04:58:10.088Z,10.70
2018-11-04T05:00:38.542Z,10.27
2018-11-04T05:03:06.956Z,10.30
2018-11-04T05:05:35.402Z,9.77
2018-11-04T05:08:03.819Z,10.87
2018-11-04T05:10:32.239Z,10.97
2018-11-04T05:13:00.657Z,12.00
2018-11-04T05:15:29.108Z,12.43
2018-11-04T05:17:57.557Z,14.30
2018-11-04T05:20:25.996Z,14.57
2018-11-04T05:22:54.406Z,14.40
2018-11-04T05:25:22.845Z,13.00
2018-11-04T05:27:51.257Z,12.83
2018-11-04T05:30:19.709Z,12.17
2018-11-04T05:32:48.139Z,11.30
2018-11-04T05:35:16.587Z,11.87
2018-11-04T05:37:45.013Z,11.73
2018-11-04T05:40:13.457Z,11.23
2018-11-04T05:42:41.884Z,10.00
2018-11-04T05:45:10.372Z,10.30
2018-11-04T05:47:38.816Z,11.13
2018-11-04T05:50:07.496Z,11.50
2018-11-04T05:52:36.423Z,11.40
2018-11-04T05:55:05.493Z,11.43
2018-11-04T05:57:34.062Z,11.30
2018-11-04T06:00:02.508Z,11.20
2018-11-04T06:02:30.985Z,12.00
2018-11-04T06:04:59.420Z,11.80
2018-11-04T06:07:27.853Z,11.63
2018-11-04T06:09:56.260Z,11.80
2018-11-04T06:12:24.722Z,11.20
2018-11-04T06:14:53.417Z,11.67
2018-11-04T06:17:21.876Z,10.73
2018-11-04T06:19:50.298Z,12.20
2018-11-04T06:22:18.745Z,12.23
2018-11-04T06:24:47.143Z,12.30
2018-11-04T06:27:15.629Z,11.93
2018-11-04T06:29:44.052Z,11.40
2018-11-04T06:32:12.617Z,11.60
2018-11-04T06:34:41.067Z,12.27
2018-11-04T06:37:09.483Z,11.90
2018-11-04T06:39:37.890Z,12.37
2018-11-04T06:42:06.356Z,13.27
2018-11-04T06:44:34.773Z,12.63
2018-11-04T06:47:05.244Z,13.60
2018-11-04T06:49:33.588Z,13.50
2018-11-04T06:52:02.054Z,12.50
2018-11-04T06:54:30.477Z,12.53
2018-11-04T06:56:58.908Z,13.97
2018-11-04T06:59:27.425Z,13.60
2018-11-04T07:01:55.897Z,12.70
2018-11-04T07:04:25.866Z,13.47
2018-11-04T07:06:54.286Z,14.90
2018-11-04T07:09:22.729Z,13.80
2018-11-04T07:11:51.260Z,13.90
2018-11-04T07:14:20.536Z,13.73
2018-11-04T07:16:49.033Z,13.60
2018-11-04T07:19:17.749Z,14.47
2018-11-04T07:21:46.216Z,14.50
2018-11-04T07:24:14.943Z,13.60
2018-11-04T07:26:43.460Z,15.23
2018-11-04T07:29:11.911Z,14.00
2018-11-04T07:31:40.319Z,22.10
2018-11-04T07:34:09.025Z,19.10
2018-11-04T07:36:37.510Z,15.57
2018-11-04T07:39:09.298Z,15.20
2018-11-04T07:41:37.727Z,15.73
2018-11-04T07:44:06.338Z,66.57
2018-11-04T07:46:34.722Z,18.67
2018-11-04T07:49:03.168Z,16.47
2018-11-04T07:51:31.639Z,21.60
2018-11-04T07:54:00.060Z,18.07
2018-11-04T07:56:28.484Z,16.87
2018-11-04T07:58:59.489Z,17.27
2018-11-04T08:01:27.966Z,16.77
2018-11-04T08:03:56.495Z,17.87
2018-11-04T08:06:24.924Z,18.10
2018-11-04T08:08:53.407Z,18.50
2018-11-04T08:11:21.826Z,18.20
2018-11-04T08:13:50.252Z,17.37
2018-11-04T08:16:18.709Z,19.90
2018-11-04T08:18:47.248Z,18.00
2018-11-04T08:21:15.783Z,18.60
2018-11-04T08:23:44.216Z,20.13
2018-11-04T08:26:12.616Z,18.67
2018-11-04T08:28:41.046Z,19.03
2018-11-04T08:31:09.444Z,19.40
2018-11-04T08:33:37.900Z,19.60
2018-11-04T08:36:06.359Z,18.53
2018-11-04T08:38:34.809Z,19.00
2018-11-04T08:41:03.248Z,18.83
2018-11-04T08:43:31.676Z,18.90
2018-11-04T08:46:00.079Z,17.90
2018-11-04T08:48:28.512Z,18.47
2018-11-04T08:50:56.913Z,19.43
2018-11-04T08:53:25.349Z,20.00
2018-11-04T08:55:53.788Z,19.90
2018-11-04T08:58:22.223Z,19.43
2018-11-04T09:00:50.702Z,21.97
2018-11-04T09:03:19.115Z,20.13
2018-11-04T09:05:47.609Z,19.47
2018-11-04T09:08:16.025Z,20.80
2018-11-04T09:10:44.452Z,20.33
2018-11-04T09:13:12.882Z,21.73
2018-11-04T09:15:41.323Z,21.03
2018-11-04T09:18:09.744Z,19.37
2018-11-04T09:20:38.207Z,19.10
2018-11-04T09:23:06.608Z,21.27
2018-11-04T09:25:35.156Z,21.17
2018-11-04T09:28:03.582Z,21.90
2018-11-04T09:30:32.069Z,21.77
2018-11-04T09:33:00.528Z,20.70
2018-11-04T09:35:30.494Z,21.70
2018-11-04T09:37:58.840Z,22.20
2018-11-04T09:40:27.295Z,22.83
2018-11-04T09:42:55.737Z,22.87
2018-11-04T09:45:24.201Z,23.20
2018-11-04T09:47:52.604Z,36.10
2018-11-04T09:50:21.118Z,23.47
2018-11-04T09:52:49.540Z,22.30
2018-11-04T09:55:18.011Z,22.23
2018-11-04T09:57:46.415Z,22.80
2018-11-04T10:00:15.846Z,22.23
2018-11-04T10:02:45.910Z,23.53
2018-11-04T10:05:14.459Z,23.43
2018-11-04T10:07:42.863Z,22.67
2018-11-04T10:10:12.856Z,23.27
2018-11-04T10:12:42.484Z,22.40
2018-11-04T10:15:11.223Z,23.60
2018-11-04T10:17:40.312Z,22.87
2018-11-04T10:20:10.740Z,23.17
2018-11-04T10:22:39.230Z,23.37
2018-11-04T10:25:08.600Z,21.70
2018-11-04T10:27:37.371Z,21.23
2018-11-04T10:30:07.934Z,22.40
2018-11-04T10:32:36.364Z,22.13
2018-11-04T10:35:05.484Z,22.27
2018-11-04T10:37:33.978Z,22.67
2018-11-04T10:40:02.434Z,22.00
2018-11-04T10:42:30.874Z,24.10
2018-11-04T10:44:59.324Z,23.37
2018-11-04T10:47:27.779Z,21.50
2018-11-04T10:49:56.302Z,22.57
2018-11-04T10:52:24.749Z,23.63
2018-11-04T10:54:53.272Z,23.50
2018-11-04T10:57:21.678Z,23.80
2018-11-04T10:59:50.686Z,21.77
2018-11-04T11:02:19.180Z,21.20
2018-11-04T11:04:47.628Z,23.37
2018-11-04T11:07:16.069Z,27.73
2018-11-04T11:09:44.502Z,41.27
2018-11-04T11:12:12.934Z,22.60
2018-11-04T11:14:41.401Z,23.87
2018-11-04T11:17:09.820Z,23.23
2018-11-04T11:19:38.262Z,22.03
2018-11-04T11:22:06.719Z,23.03
2018-11-04T11:24:35.165Z,23.13
2018-11-04T11:27:03.631Z,23.40
2018-11-04T11:29:32.060Z,23.70
2018-11-04T11:32:00.531Z,23.47
2018-11-04T11:34:28.956Z,23.63
2018-11-04T11:36:57.420Z,23.80
2018-11-04T11:39:25.849Z,23.67
2018-11-04T11:41:54.297Z,22.90
2018-11-04T11:44:22.720Z,24.23
2018-11-04T11:46:51.189Z,23.70
2018-11-04T11:49:19.648Z,22.57
2018-11-04T11:51:48.080Z,23.60
2018-11-04T11:54:16.503Z,22.70
2018-11-04T11:56:44.955Z,21.43
2018-11-04T11:59:13.409Z,21.67
2018-11-04T12:01:41.858Z,22.90
2018-11-04T12:04:10.383Z,20.83
2018-11-04T12:06:39.085Z,21.40
2018-11-04T12:09:07.994Z,22.67
2018-11-04T12:11:36.450Z,21.10
2018-11-04T12:14:04.938Z,21.67
2018-11-04T12:16:33.381Z,20.87
2018-11-04T12:19:01.822Z,21.00
2018-11-04T12:21:30.281Z,21.20
2018-11-04T12:23:58.710Z,20.93
2018-11-04T12:26:27.182Z,19.70
2018-11-04T12:28:55.604Z,20.70
2018-11-04T12:31:24.060Z,20.90
2018-11-04T12:33:52.496Z,19.97
2018-11-04T12:36:20.964Z,21.17
2018-11-04T12:38:49.398Z,20.90
2018-11-04T12:41:17.874Z,19.50
2018-11-04T12:43:46.288Z,20.10
2018-11-04T12:46:14.742Z,20.97
2018-11-04T12:48:43.171Z,20.03
2018-11-04T12:51:11.620Z,19.80
2018-11-04T12:53:40.048Z,18.73
2018-11-04T12:56:08.509Z,20.47
2018-11-04T12:58:36.937Z,20.47
2018-11-04T13:01:05.733Z,25.53
2018-11-04T13:03:34.146Z,20.70
2018-11-04T13:06:02.607Z,19.67
2018-11-04T13:08:31.082Z,21.50
2018-11-04T13:10:59.538Z,21.27
2018-11-04T13:13:27.992Z,20.87
2018-11-04T13:15:56.434Z,20.30
2018-11-04T13:18:24.910Z,20.57
2018-11-04T13:20:53.369Z,21.37
2018-11-04T13:23:21.810Z,19.90
2018-11-04T13:25:50.245Z,20.50
2018-11-04T13:28:18.712Z,20.83
2018-11-04T13:30:47.136Z,20.30
2018-11-04T13:33:15.582Z,19.87
2018-11-04T13:35:44.028Z,20.83
2018-11-04T13:38:12.509Z,22.40
2018-11-04T13:40:40.936Z,21.43
2018-11-04T13:43:09.452Z,21.60
2018-11-04T13:45:37.871Z,20.57
2018-11-04T13:48:06.696Z,20.50
2018-11-04T13:50:35.134Z,20.60
2018-11-04T13:53:03.592Z,22.80
2018-11-04T13:55:32.008Z,23.07
2018-11-04T13:58:00.516Z,22.60
2018-11-04T14:00:28.978Z,24.20
2018-11-04T14:02:57.523Z,24.10
2018-11-04T14:05:25.932Z,23.90
2018-11-04T14:07:54.412Z,23.23
2018-11-04T14:10:22.846Z,23.13
2018-11-04T14:12:51.348Z,23.47
2018-11-04T14:15:19.752Z,22.53
2018-11-04T14:17:48.188Z,23.67
2018-11-04T14:20:16.637Z,23.83
2018-11-04T14:22:45.089Z,24.87
2018-11-04T14:25:13.571Z,23.20
2018-11-04T14:27:42.076Z,22.50
2018-11-04T14:30:12.713Z,25.13
2018-11-04T14:32:41.291Z,23.67
2018-11-04T14:35:10.636Z,24.87
2018-11-04T14:37:40.090Z,25.90
2018-11-04T14:40:10.410Z,25.43
2018-11-04T14:42:39.551Z,25.10
2018-11-04T14:45:08.329Z,24.97
2018-11-04T14:47:37.170Z,24.37
2018-11-04T14:50:09.217Z,23.13
2018-11-04T14:52:37.874Z,24.00
2018-11-04T14:55:06.708Z,24.50
2018-11-04T14:57:35.422Z,25.23
2018-11-04T15:00:04.149Z,24.07
2018-11-04T15:02:32.595Z,24.80
2018-11-04T15:05:01.358Z,24.73
2018-11-04T15:07:29.906Z,25.40
2018-11-04T15:09:58.249Z,24.67
2018-11-04T15:12:26.672Z,24.70
2018-11-04T15:14:55.122Z,25.40
2018-11-04T15:17:23.537Z,26.47
2018-11-04T15:19:52.000Z,25.90
2018-11-04T15:22:20.437Z,24.60
2018-11-04T15:24:48.968Z,24.53
2018-11-04T15:27:17.357Z,24.10
2018-11-04T15:29:45.813Z,25.63
2018-11-04T15:32:14.233Z,25.00
2018-11-04T15:34:42.884Z,26.17
2018-11-04T15:37:11.127Z,27.63
2018-11-04T15:39:39.605Z,25.53
2018-11-04T15:42:08.046Z,27.13
2018-11-04T15:44:36.514Z,25.93
2018-11-04T15:47:05.340Z,25.87
2018-11-04T15:49:33.795Z,26.10
2018-11-04T15:52:02.242Z,26.50
2018-11-04T15:54:30.689Z,26.17
2018-11-04T15:57:06.120Z,26.53
2018-11-04T15:59:34.516Z,27.10
2018-11-04T16:02:02.962Z,26.50
2018-11-04T16:04:31.416Z,26.60
2018-11-04T16:06:59.852Z,26.47
2018-11-04T16:09:28.300Z,25.83
2018-11-04T16:11:56.729Z,26.40
2018-11-04T16:14:25.161Z,26.07
2018-11-04T16:16:53.585Z,27.10
2018-11-04T16:19:22.060Z,27.27
2018-11-04T16:21:50.473Z,25.93
2018-11-04T16:24:18.919Z,25.73
2018-11-04T16:26:47.340Z,26.23
2018-11-04T16:29:15.776Z,25.73
2018-11-04T16:31:44.235Z,25.93
2018-11-04T16:34:12.838Z,27.57
2018-11-04T16:36:41.253Z,27.67
2018-11-04T16:39:10.144Z,25.73
2018-11-04T16:41:38.578Z,25.90
2018-11-04T16:44:07.799Z,26.80
2018-11-04T16:46:36.427Z,25.57
2018-11-04T16:49:05.449Z,27.00
2018-11-04T16:51:33.869Z,25.60
2018-11-04T16:54:02.344Z,26.70
2018-11-04T16:56:30.765Z,25.60
2018-11-04T16:58:59.210Z,29.00
2018-11-04T17:01:27.672Z,25.80
2018-11-04T17:03:56.150Z,28.67
2018-11-04T17:06:24.660Z,27.10
2018-11-04T17:08:53.429Z,25.67
2018-11-04T17:11:21.969Z,27.83
2018-11-04T17:13:50.439Z,26.93
2018-11-04T17:16:18.916Z,27.57
2018-11-04T17:18:47.331Z,27.70
2018-11-04T17:21:15.772Z,28.80
2018-11-04T17:23:44.184Z,28.83
2018-11-04T17:26:12.641Z,27.03
2018-11-04T17:28:41.080Z,27.80
2018-11-04T17:31:09.540Z,27.27
2018-11-04T17:33:37.976Z,30.03
2018-11-04T17:36:06.566Z,28.27
2018-11-04T17:38:34.917Z,27.93
2018-11-04T17:41:03.365Z,28.80
2018-11-04T17:43:31.797Z,28.90
2018-11-04T17:46:00.241Z,29.00
2018-11-04T17:48:28.672Z,29.00
2018-11-04T17:50:57.120Z,29.37
2018-11-04T17:53:25.537Z,28.13
2018-11-04T17:55:53.986Z,28.90
2018-11-04T17:58:22.396Z,28.27
2018-11-04T18:00:50.864Z,27.80
2018-11-04T18:03:19.293Z,30.50
2018-11-04T18:05:47.736Z,29.27
2018-11-04T18:08:16.203Z,30.40
2018-11-04T18:10:44.646Z,30.07
2018-11-04T18:13:13.095Z,28.60
2018-11-04T18:15:41.574Z,30.13
2018-11-04T18:18:10.422Z,30.27
2018-11-04T18:20:38.887Z,29.63
2018-11-04T18:23:07.287Z,29.53
2018-11-04T18:25:35.734Z,29.30
2018-11-04T18:28:04.165Z,29.27
2018-11-04T18:30:32.594Z,29.83
2018-11-04T18:33:01.026Z,29.27
2018-11-04T18:35:29.462Z,30.77
2018-11-04T18:37:57.868Z,29.73
2018-11-04T18:40:26.317Z,31.67
2018-11-04T18:42:54.726Z,29.70
2018-11-04T18:45:23.159Z,31.23
2018-11-04T18:47:51.556Z,30.60
2018-11-04T18:50:20.086Z,31.07
2018-11-04T18:52:48.748Z,31.90
2018-11-04T18:55:17.010Z,31.00
2018-11-04T18:57:45.471Z,31.90
2018-11-04T19:00:15.295Z,32.30
2018-11-04T19:02:43.989Z,32.00
2018-11-04T19:05:12.494Z,31.67
2018-11-04T19:07:40.881Z,33.20
2018-11-04T19:10:12.281Z,33.63
2018-11-04T19:12:40.768Z,31.63
2018-11-04T19:15:09.404Z,32.20
2018-11-04T19:17:38.081Z,32.00
2018-11-04T19:20:08.397Z,33.30
2018-11-04T19:22:37.156Z,31.80
2018-11-04T19:25:06.190Z,34.40
2018-11-04T19:27:34.633Z,32.83
2018-11-04T19:30:03.060Z,34.40
2018-11-04T19:32:31.497Z,34.00
2018-11-04T19:34:59.936Z,31.87
2018-11-04T19:37:28.454Z,32.67
2018-11-04T19:39:56.812Z,32.73
2018-11-04T19:42:25.268Z,33.83
2018-11-04T19:44:53.690Z,33.37
2018-11-04T19:47:22.153Z,35.77
2018-11-04T19:49:50.568Z,34.70
2018-11-04T19:52:19.021Z,34.40
2018-11-04T19:54:47.417Z,32.43
2018-11-04T19:57:15.873Z,34.30
2018-11-04T19:59:44.297Z,35.00
2018-11-04T20:02:12.764Z,34.80
2018-11-04T20:04:41.207Z,34.93
2018-11-04T20:07:09.664Z,35.40
2018-11-04T20:09:38.093Z,34.93
2018-11-04T20:12:10.714Z,37.13
2018-11-04T20:14:39.155Z,35.70
2018-11-04T20:17:07.597Z,35.63
2018-11-04T20:19:41.337Z,36.70
2018-11-04T20:22:09.639Z,37.30
2018-11-04T20:24:43.358Z,35.60
2018-11-04T20:27:11.796Z,37.23
2018-11-04T20:29:40.209Z,35.90
2018-11-04T20:32:13.856Z,37.93
2018-11-04T20:34:42.277Z,37.37
2018-11-04T20:37:10.737Z,37.30
2018-11-04T20:39:44.589Z,36.50
2018-11-04T20:42:13.032Z,37.57
2018-11-04T20:44:47.568Z,38.27
2018-11-04T20:47:16.332Z,38.00
2018-11-04T20:49:50.068Z,37.27
2018-11-04T20:52:18.958Z,36.90
2018-11-04T20:54:47.469Z,37.30
2018-11-04T20:57:21.112Z,35.77
2018-11-04T20:59:49.534Z,37.37
2018-11-04T21:02:18.237Z,36.10
2018-11-04T21:04:46.459Z,38.10
2018-11-04T21:07:14.905Z,36.17
2018-11-04T21:09:43.367Z,38.90
2018-11-04T21:12:11.793Z,37.27
2018-11-04T21:14:40.215Z,36.50
2018-11-04T21:17:08.647Z,35.50
2018-11-04T21:19:37.106Z,34.70
2018-11-04T21:22:08.928Z,34.90
2018-11-04T21:24:37.363Z,34.57
2018-11-04T21:27:06.374Z,34.57
2018-11-04T21:29:35.151Z,34.40
2018-11-04T21:32:03.649Z,34.20
2018-11-04T21:34:32.058Z,35.73
2018-11-04T21:37:00.513Z,34.67
2018-11-04T21:39:28.926Z,34.53
2018-11-04T21:41:57.351Z,35.37
2018-11-04T21:44:25.964Z,37.20
2018-11-04T21:46:54.250Z,35.77
2018-11-04T21:49:22.751Z,36.50
2018-11-04T21:51:51.144Z,35.40
2018-11-04T21:54:19.585Z,35.17
2018-11-04T21:56:48.008Z,35.67
2018-11-04T21:59:16.445Z,36.30
2018-11-04T22:01:44.915Z,35.40
2018-11-04T22:04:13.428Z,37.20
2018-11-04T22:06:41.820Z,37.60
2018-11-04T22:09:10.769Z,36.17
2018-11-04T22:11:39.295Z,37.10
2018-11-04T22:14:07.760Z,35.67
2018-11-04T22:16:36.179Z,34.50
2018-11-04T22:19:04.638Z,36.10
2018-11-04T22:21:33.061Z,36.30
2018-11-04T22:24:01.517Z,35.60
2018-11-04T22:26:29.971Z,35.40
2018-11-04T22:28:58.418Z,36.07
2018-11-04T22:31:26.956Z,34.33
2018-11-04T22:33:55.439Z,34.37
2018-11-04T22:36:23.891Z,35.37
2018-11-04T22:38:52.357Z,35.30
2018-11-04T22:41:21.046Z,35.07
2018-11-04T22:43:49.496Z,34.90
2018-11-04T22:46:17.937Z,37.10
2018-11-04T22:48:46.382Z,34.17
2018-11-04T22:51:14.786Z,31.60
2018-11-04T22:53:43.244Z,33.10
2018-11-04T22:56:11.781Z,34.90
2018-11-04T22:58:40.124Z,35.73
2018-11-04T23:01:08.583Z,36.47
2018-11-04T23:03:37.053Z,33.30
2018-11-04T23:06:12.049Z,34.93
2018-11-04T23:08:40.486Z,33.30
2018-11-04T23:11:08.893Z,33.57
2018-11-04T23:13:37.339Z,33.60
2018-11-04T23:16:05.812Z,34.07
2018-11-04T23:18:34.268Z,36.00
2018-11-04T23:21:02.699Z,33.13
2018-11-04T23:23:31.155Z,36.47
2018-11-04T23:25:59.574Z,35.10
2018-11-04T23:28:28.033Z,36.83
2018-11-04T23:30:56.446Z,36.47
2018-11-04T23:33:24.885Z,34.63
2018-11-04T23:35:53.313Z,37.20
2018-11-04T23:38:21.768Z,35.33
2018-11-04T23:40:50.199Z,35.83
2018-11-04T23:43:18.657Z,37.67
2018-11-04T23:45:47.120Z,38.40
2018-11-04T23:48:15.550Z,35.87
2018-11-04T23:50:44.002Z,36.10
2018-11-04T23:53:12.409Z,37.43
2018-11-04T23:55:40.846Z,36.87
2018-11-04T23:58:10.915Z,39.53
